createdAt,value
2022-10-06T00:00:02.715Z,85.93
2022-10-06T00:00:13.232Z,85.72
2022-10-06T00:00:23.753Z,85.72
2022-10-06T00:00:34.271Z,85.62
2022-10-06T00:00:44.792Z,85.62
2022-10-06T00:00:55.295Z,85.42
2022-10-06T00:01:05.908Z,85.22
2022-10-06T00:01:16.448Z,85.31
2022-10-06T00:01:26.901Z,85.08
2022-10-06T00:01:37.470Z,85.08
2022-10-06T00:01:47.940Z,85.17
2022-10-06T00:01:58.385Z,84.97
2022-10-06T00:02:08.993Z,84.87
2022-10-06T00:02:19.525Z,84.87
2022-10-06T00:02:29.984Z,84.77
2022-10-06T00:02:40.531Z,84.77
2022-10-06T00:02:51.023Z,84.67
2022-10-06T00:03:01.526Z,84.67
2022-10-06T00:03:12.016Z,84.77
2022-10-06T00:03:22.523Z,84.77
2022-10-06T00:03:33.052Z,84.77
2022-10-06T00:03:43.571Z,84.87
2022-10-06T00:03:54.066Z,84.97
2022-10-06T00:04:04.588Z,84.77
2022-10-06T00:04:15.108Z,84.57
2022-10-06T00:04:25.608Z,84.57
2022-10-06T00:04:36.124Z,84.47
2022-10-06T00:04:46.642Z,84.67
2022-10-06T00:04:57.167Z,84.77
2022-10-06T00:05:07.677Z,84.77
2022-10-06T00:05:18.192Z,84.77
2022-10-06T00:05:28.707Z,84.87
2022-10-06T00:05:39.232Z,84.87
2022-10-06T00:05:49.741Z,84.77
2022-10-06T00:06:00.253Z,84.87
2022-10-06T00:06:10.767Z,84.87
2022-10-06T00:06:21.293Z,84.77
2022-10-06T00:06:31.811Z,84.67
2022-10-06T00:06:42.326Z,84.67
2022-10-06T00:06:52.843Z,84.77
2022-10-06T00:07:03.362Z,84.77
2022-10-06T00:07:13.880Z,84.67
2022-10-06T00:07:24.388Z,84.57
2022-10-06T00:07:34.914Z,84.57
2022-10-06T00:07:45.433Z,84.77
2022-10-06T00:07:55.969Z,84.77
2022-10-06T00:08:10.006Z,84.77
2022-10-06T00:08:16.970Z,84.77
2022-10-06T00:08:27.803Z,84.77
2022-10-06T00:08:38.004Z,84.77
2022-10-06T00:08:48.519Z,84.77
2022-10-06T00:08:59.034Z,84.77
2022-10-06T00:09:09.550Z,84.97
2022-10-06T00:09:20.072Z,84.87
2022-10-06T00:09:30.596Z,84.77
2022-10-06T00:09:41.102Z,84.87
2022-10-06T00:09:51.615Z,84.87
2022-10-06T00:10:02.135Z,84.97
2022-10-06T00:10:12.654Z,84.77
2022-10-06T00:10:23.165Z,84.77
2022-10-06T00:10:33.697Z,84.97
2022-10-06T00:10:44.199Z,85.08
2022-10-06T00:10:54.738Z,85.08
2022-10-06T00:11:05.229Z,84.77
2022-10-06T00:11:15.752Z,84.77
2022-10-06T00:11:26.261Z,84.67
2022-10-06T00:11:36.779Z,84.77
2022-10-06T00:11:47.297Z,84.77
2022-10-06T00:11:57.817Z,84.87
2022-10-06T00:12:08.350Z,84.97
2022-10-06T00:12:18.857Z,85.08
2022-10-06T00:12:29.386Z,85.08
2022-10-06T00:12:39.893Z,85.08
2022-10-06T00:12:50.395Z,85.08
2022-10-06T00:13:00.908Z,84.97
2022-10-06T00:13:11.428Z,84.97
2022-10-06T00:13:21.952Z,84.97
2022-10-06T00:13:32.489Z,85.08
2022-10-06T00:13:43.006Z,85.08
2022-10-06T00:13:53.501Z,84.77
2022-10-06T00:14:04.016Z,84.77
2022-10-06T00:14:14.533Z,84.87
2022-10-06T00:14:25.053Z,84.87
2022-10-06T00:14:35.599Z,84.87
2022-10-06T00:14:46.091Z,84.87
2022-10-06T00:14:56.598Z,84.87
2022-10-06T00:15:07.117Z,84.77
2022-10-06T00:15:17.631Z,84.77
2022-10-06T00:15:28.192Z,84.77
2022-10-06T00:15:38.701Z,84.47
2022-10-06T00:15:49.277Z,84.27
2022-10-06T00:15:59.766Z,84.17
2022-10-06T00:16:10.411Z,84.12
2022-10-06T00:16:20.786Z,84.12
2022-10-06T00:16:31.252Z,84.23
2022-10-06T00:16:41.775Z,84.03
2022-10-06T00:16:52.299Z,83.82
2022-10-06T00:17:02.804Z,83.72
2022-10-06T00:17:13.330Z,83.72
2022-10-06T00:17:23.834Z,83.82
2022-10-06T00:17:34.364Z,83.92
2022-10-06T00:17:44.886Z,83.92
2022-10-06T00:17:55.388Z,84.03
2022-10-06T00:18:05.911Z,83.82
2022-10-06T00:18:16.418Z,83.72
2022-10-06T00:18:27.408Z,83.92
2022-10-06T00:18:37.455Z,83.92
2022-10-06T00:18:47.968Z,83.92
2022-10-06T00:18:58.484Z,83.72
2022-10-06T00:19:09.018Z,83.72
2022-10-06T00:19:19.527Z,83.82
2022-10-06T00:19:30.036Z,83.82
2022-10-06T00:19:40.605Z,83.92
2022-10-06T00:19:51.063Z,83.82
2022-10-06T00:20:01.586Z,83.92
2022-10-06T00:20:12.105Z,83.92
2022-10-06T00:20:22.624Z,83.92
2022-10-06T00:20:33.129Z,83.92
2022-10-06T00:20:43.648Z,83.82
2022-10-06T00:20:54.163Z,83.72
2022-10-06T00:21:04.683Z,83.82
2022-10-06T00:21:15.199Z,83.52
2022-10-06T00:21:25.717Z,83.86
2022-10-06T00:21:36.245Z,84.37
2022-10-06T00:21:46.826Z,84.67
2022-10-06T00:21:57.269Z,84.77
2022-10-06T00:22:07.776Z,85.02
2022-10-06T00:22:18.292Z,85.52
2022-10-06T00:22:28.807Z,86.02
2022-10-06T00:22:39.329Z,86.37
2022-10-06T00:22:49.840Z,87.38
2022-10-06T00:23:00.367Z,88.09
2022-10-06T00:23:10.889Z,88.84
2022-10-06T00:23:21.401Z,89.14
2022-10-06T00:23:31.912Z,89.28
2022-10-06T00:23:42.430Z,89.39
2022-10-06T00:23:52.943Z,89.63
2022-10-06T00:24:03.462Z,90.48
2022-10-06T00:24:13.977Z,91.09
2022-10-06T00:24:24.493Z,91.60
2022-10-06T00:24:35.006Z,92.05
2022-10-06T00:24:45.554Z,92.65
2022-10-06T00:24:56.033Z,93.06
2022-10-06T00:25:06.562Z,93.41
2022-10-06T00:25:17.080Z,93.51
2022-10-06T00:25:27.596Z,93.71
2022-10-06T00:25:38.127Z,94.12
2022-10-06T00:25:48.635Z,94.37
2022-10-06T00:25:59.146Z,94.57
2022-10-06T00:26:09.654Z,94.57
2022-10-06T00:26:20.178Z,94.77
2022-10-06T00:26:30.699Z,94.77
2022-10-06T00:26:41.205Z,95.07
2022-10-06T00:26:51.751Z,95.22
2022-10-06T00:27:02.238Z,95.42
2022-10-06T00:27:12.749Z,95.53
2022-10-06T00:27:23.262Z,95.73
2022-10-06T00:27:33.792Z,95.94
2022-10-06T00:27:44.381Z,96.03
2022-10-06T00:27:54.880Z,96.03
2022-10-06T00:28:05.382Z,96.03
2022-10-06T00:28:15.938Z,96.23
2022-10-06T00:28:26.965Z,96.34
2022-10-06T00:28:36.921Z,96.23
2022-10-06T00:28:47.500Z,96.28
2022-10-06T00:28:57.913Z,96.38
2022-10-06T00:29:08.429Z,96.18
2022-10-06T00:29:18.986Z,96.28
2022-10-06T00:29:29.456Z,96.28
2022-10-06T00:29:39.978Z,96.48
2022-10-06T00:29:50.488Z,96.48
2022-10-06T00:30:01.008Z,96.59
2022-10-06T00:30:11.521Z,96.69
2022-10-06T00:30:22.034Z,96.89
2022-10-06T00:30:32.559Z,96.99
2022-10-06T00:30:43.139Z,96.89
2022-10-06T00:30:53.816Z,96.99
2022-10-06T00:31:04.147Z,97.20
2022-10-06T00:31:14.728Z,96.89
2022-10-06T00:31:25.194Z,96.89
2022-10-06T00:31:35.720Z,97.09
2022-10-06T00:31:46.167Z,97.30
2022-10-06T00:31:56.676Z,97.40
2022-10-06T00:32:07.192Z,97.30
2022-10-06T00:32:17.705Z,96.99
2022-10-06T00:32:28.225Z,96.94
2022-10-06T00:32:38.748Z,96.89
2022-10-06T00:32:49.258Z,96.94
2022-10-06T00:32:59.791Z,97.04
2022-10-06T00:33:10.292Z,97.24
2022-10-06T00:33:20.827Z,97.14
2022-10-06T00:33:31.327Z,97.04
2022-10-06T00:33:41.840Z,97.14
2022-10-06T00:33:52.351Z,97.24
2022-10-06T00:34:02.865Z,97.34
2022-10-06T00:34:13.384Z,97.14
2022-10-06T00:34:23.903Z,96.94
2022-10-06T00:34:34.414Z,97.04
2022-10-06T00:34:44.931Z,97.04
2022-10-06T00:34:55.455Z,96.94
2022-10-06T00:35:05.959Z,96.63
2022-10-06T00:35:16.485Z,96.43
2022-10-06T00:35:26.997Z,96.12
2022-10-06T00:35:37.516Z,96.12
2022-10-06T00:35:48.034Z,96.23
2022-10-06T00:35:58.550Z,96.08
2022-10-06T00:36:09.065Z,96.12
2022-10-06T00:36:19.582Z,96.18
2022-10-06T00:36:30.087Z,96.33
2022-10-06T00:36:40.619Z,96.28
2022-10-06T00:36:51.126Z,96.43
2022-10-06T00:37:01.652Z,96.53
2022-10-06T00:37:12.176Z,96.63
2022-10-06T00:37:22.678Z,96.53
2022-10-06T00:37:33.185Z,96.43
2022-10-06T00:37:43.695Z,96.53
2022-10-06T00:37:54.209Z,96.83
2022-10-06T00:38:04.723Z,96.94
2022-10-06T00:38:15.244Z,97.04
2022-10-06T00:38:26.231Z,97.24
2022-10-06T00:38:36.276Z,97.34
2022-10-06T00:38:46.788Z,97.44
2022-10-06T00:38:57.301Z,97.44
2022-10-06T00:39:07.821Z,97.44
2022-10-06T00:39:18.342Z,97.44
2022-10-06T00:39:28.848Z,97.65
2022-10-06T00:39:39.355Z,97.75
2022-10-06T00:39:49.874Z,97.55
2022-10-06T00:40:00.387Z,97.34
2022-10-06T00:40:10.906Z,97.34
2022-10-06T00:40:21.418Z,97.34
2022-10-06T00:40:31.932Z,97.24
2022-10-06T00:40:42.464Z,97.24
2022-10-06T00:40:52.970Z,97.24
2022-10-06T00:41:03.478Z,97.24
2022-10-06T00:41:13.994Z,97.55
2022-10-06T00:41:24.506Z,97.44
2022-10-06T00:41:35.035Z,97.44
2022-10-06T00:41:45.538Z,97.55
2022-10-06T00:41:56.055Z,97.65
2022-10-06T00:42:06.600Z,97.75
2022-10-06T00:42:17.084Z,97.85
2022-10-06T00:42:27.597Z,97.96
2022-10-06T00:42:38.121Z,97.96
2022-10-06T00:42:48.626Z,97.96
2022-10-06T00:42:59.148Z,98.05
2022-10-06T00:43:09.657Z,98.05
2022-10-06T00:43:20.169Z,97.85
2022-10-06T00:43:30.682Z,97.96
2022-10-06T00:43:41.200Z,97.96
2022-10-06T00:43:51.711Z,97.75
2022-10-06T00:44:02.226Z,97.44
2022-10-06T00:44:12.738Z,97.34
2022-10-06T00:44:23.267Z,97.34
2022-10-06T00:44:33.774Z,97.44
2022-10-06T00:44:44.308Z,97.55
2022-10-06T00:44:54.803Z,97.65
2022-10-06T00:45:05.317Z,97.75
2022-10-06T00:45:15.826Z,97.75
2022-10-06T00:45:26.348Z,97.85
2022-10-06T00:45:36.857Z,97.96
2022-10-06T00:45:47.371Z,98.05
2022-10-06T00:45:57.917Z,98.05
2022-10-06T00:46:08.464Z,98.05
2022-10-06T00:46:18.973Z,98.05
2022-10-06T00:46:29.545Z,98.05
2022-10-06T00:46:39.983Z,98.05
2022-10-06T00:46:50.457Z,98.16
2022-10-06T00:47:00.967Z,98.26
2022-10-06T00:47:11.484Z,98.36
2022-10-06T00:47:22.010Z,98.36
2022-10-06T00:47:32.524Z,98.46
2022-10-06T00:47:43.023Z,98.56
2022-10-06T00:47:53.547Z,98.56
2022-10-06T00:48:04.059Z,98.56
2022-10-06T00:48:14.575Z,98.46
2022-10-06T00:48:25.379Z,98.46
2022-10-06T00:48:35.609Z,98.46
2022-10-06T00:48:46.117Z,98.56
2022-10-06T00:48:56.635Z,98.66
2022-10-06T00:49:07.181Z,98.77
2022-10-06T00:49:17.669Z,98.77
2022-10-06T00:49:28.180Z,98.86
2022-10-06T00:49:38.699Z,98.86
2022-10-06T00:49:49.215Z,98.97
2022-10-06T00:49:59.733Z,98.97
2022-10-06T00:50:10.246Z,98.86
2022-10-06T00:50:20.763Z,98.86
2022-10-06T00:50:31.280Z,98.86
2022-10-06T00:50:41.795Z,98.86
2022-10-06T00:50:52.314Z,98.86
2022-10-06T00:51:02.822Z,98.97
2022-10-06T00:51:13.340Z,99.07
2022-10-06T00:51:23.855Z,99.17
2022-10-06T00:51:34.367Z,99.27
2022-10-06T00:51:44.887Z,99.27
2022-10-06T00:51:55.392Z,99.27
2022-10-06T00:52:05.915Z,99.27
2022-10-06T00:52:16.431Z,99.17
2022-10-06T00:52:26.943Z,99.17
2022-10-06T00:52:37.457Z,99.07
2022-10-06T00:52:47.976Z,99.17
2022-10-06T00:52:58.496Z,99.17
2022-10-06T00:53:09.015Z,99.17
2022-10-06T00:53:19.524Z,99.17
2022-10-06T00:53:30.052Z,99.07
2022-10-06T00:53:40.555Z,98.86
2022-10-06T00:53:51.072Z,98.77
2022-10-06T00:54:01.586Z,98.77
2022-10-06T00:54:12.145Z,98.86
2022-10-06T00:54:22.608Z,98.97
2022-10-06T00:54:33.130Z,98.86
2022-10-06T00:54:43.642Z,98.77
2022-10-06T00:54:54.167Z,98.77
2022-10-06T00:55:04.673Z,98.77
2022-10-06T00:55:15.185Z,98.77
2022-10-06T00:55:25.703Z,98.86
2022-10-06T00:55:36.226Z,98.86
2022-10-06T00:55:46.742Z,98.97
2022-10-06T00:55:57.252Z,99.07
2022-10-06T00:56:07.751Z,99.07
2022-10-06T00:56:18.266Z,99.07
2022-10-06T00:56:28.777Z,99.17
2022-10-06T00:56:39.302Z,99.07
2022-10-06T00:56:49.810Z,99.07
2022-10-06T00:57:00.324Z,99.07
2022-10-06T00:57:10.839Z,98.97
2022-10-06T00:57:21.350Z,98.97
2022-10-06T00:57:31.873Z,98.97
2022-10-06T00:57:42.384Z,99.07
2022-10-06T00:57:52.888Z,99.17
2022-10-06T00:58:03.413Z,99.27
2022-10-06T00:58:13.923Z,99.27
2022-10-06T00:58:24.637Z,99.27
2022-10-06T00:58:34.945Z,99.27
2022-10-06T00:58:45.476Z,99.27
2022-10-06T00:58:55.977Z,99.27
2022-10-06T00:59:06.492Z,99.27
2022-10-06T00:59:17.041Z,99.27
2022-10-06T00:59:27.530Z,99.17
2022-10-06T00:59:38.040Z,99.17
2022-10-06T00:59:48.547Z,99.07
2022-10-06T00:59:59.068Z,99.07
2022-10-06T01:00:09.581Z,99.07
2022-10-06T01:00:20.089Z,98.97
2022-10-06T01:00:30.605Z,98.97
2022-10-06T01:00:41.126Z,98.97
2022-10-06T01:00:51.632Z,98.97
2022-10-06T01:01:02.143Z,98.86
2022-10-06T01:01:12.724Z,98.77
2022-10-06T01:01:23.244Z,98.77
2022-10-06T01:01:33.757Z,98.77
2022-10-06T01:01:44.262Z,98.77
2022-10-06T01:01:54.834Z,98.86
2022-10-06T01:02:05.232Z,98.86
2022-10-06T01:02:15.788Z,98.97
2022-10-06T01:02:26.350Z,99.07
2022-10-06T01:02:36.873Z,99.07
2022-10-06T01:02:47.426Z,99.07
2022-10-06T01:02:57.858Z,99.07
2022-10-06T01:03:08.351Z,98.97
2022-10-06T01:03:18.823Z,98.86
2022-10-06T01:03:29.333Z,98.97
2022-10-06T01:03:39.851Z,98.97
2022-10-06T01:03:50.371Z,98.97
2022-10-06T01:04:00.881Z,99.07
2022-10-06T01:04:11.396Z,99.17
2022-10-06T01:04:21.928Z,99.27
2022-10-06T01:04:32.423Z,99.27
2022-10-06T01:04:42.938Z,99.38
2022-10-06T01:04:53.444Z,99.48
2022-10-06T01:05:03.964Z,99.58
2022-10-06T01:05:14.475Z,99.58
2022-10-06T01:05:24.998Z,99.68
2022-10-06T01:05:35.509Z,99.68
2022-10-06T01:05:46.021Z,99.58
2022-10-06T01:05:56.530Z,99.58
2022-10-06T01:06:07.065Z,99.58
2022-10-06T01:06:17.555Z,99.68
2022-10-06T01:06:28.099Z,99.68
2022-10-06T01:06:38.581Z,99.78
2022-10-06T01:06:49.096Z,99.78
2022-10-06T01:06:59.618Z,99.78
2022-10-06T01:07:10.163Z,99.88
2022-10-06T01:07:20.639Z,99.88
2022-10-06T01:07:31.154Z,99.88
2022-10-06T01:07:41.673Z,99.99
2022-10-06T01:07:52.175Z,99.99
2022-10-06T01:08:02.687Z,99.99
2022-10-06T01:08:13.204Z,99.99
2022-10-06T01:08:23.719Z,99.99
2022-10-06T01:08:34.233Z,99.99
2022-10-06T01:08:44.739Z,99.99
2022-10-06T01:08:55.255Z,99.99
2022-10-06T01:09:05.768Z,99.99
2022-10-06T01:09:16.282Z,99.99
2022-10-06T01:09:26.795Z,99.99
2022-10-06T01:09:37.315Z,99.99
2022-10-06T01:09:47.823Z,99.99
2022-10-06T01:09:58.333Z,99.99
2022-10-06T01:10:08.847Z,99.99
2022-10-06T01:10:19.365Z,99.99
2022-10-06T01:10:29.875Z,99.99
2022-10-06T01:10:40.384Z,99.99
2022-10-06T01:10:50.917Z,99.99
2022-10-06T01:11:01.417Z,99.99
2022-10-06T01:11:11.931Z,99.99
2022-10-06T01:11:22.433Z,99.99
2022-10-06T01:11:32.987Z,99.99
2022-10-06T01:11:43.462Z,99.99
2022-10-06T01:11:53.989Z,99.99
2022-10-06T01:12:04.483Z,99.99
2022-10-06T01:12:15.000Z,99.99
2022-10-06T01:12:25.516Z,99.99
2022-10-06T01:12:36.037Z,99.99
2022-10-06T01:12:46.543Z,99.99
2022-10-06T01:12:57.050Z,99.99
2022-10-06T01:13:07.596Z,99.99
2022-10-06T01:13:18.095Z,99.99
2022-10-06T01:13:28.604Z,99.99
2022-10-06T01:13:39.103Z,99.99
2022-10-06T01:13:49.615Z,99.99
2022-10-06T01:14:00.130Z,99.99
2022-10-06T01:14:10.642Z,99.99
2022-10-06T01:14:21.154Z,99.99
2022-10-06T01:14:31.670Z,99.99
2022-10-06T01:14:42.183Z,99.99
2022-10-06T01:14:52.705Z,99.99
2022-10-06T01:15:03.211Z,99.99
2022-10-06T01:15:13.726Z,99.99
2022-10-06T01:15:24.234Z,99.99
2022-10-06T01:15:34.782Z,99.99
2022-10-06T01:15:45.349Z,99.99
2022-10-06T01:15:55.861Z,99.99
2022-10-06T01:16:06.489Z,99.99
2022-10-06T01:16:16.908Z,99.99
2022-10-06T01:16:27.338Z,99.99
2022-10-06T01:16:37.840Z,99.99
2022-10-06T01:16:48.347Z,99.99
2022-10-06T01:16:58.865Z,99.99
2022-10-06T01:17:09.387Z,99.99
2022-10-06T01:17:19.888Z,99.99
2022-10-06T01:17:30.428Z,99.99
2022-10-06T01:17:40.929Z,99.99
2022-10-06T01:17:51.470Z,99.99
2022-10-06T01:18:01.947Z,99.99
2022-10-06T01:18:12.465Z,99.99
2022-10-06T01:18:22.979Z,99.99
2022-10-06T01:18:33.494Z,99.99
2022-10-06T01:18:44.003Z,99.99
2022-10-06T01:18:54.517Z,99.99
2022-10-06T01:19:05.032Z,99.99
2022-10-06T01:19:15.545Z,99.99
2022-10-06T01:19:26.077Z,99.99
2022-10-06T01:19:36.580Z,99.99
2022-10-06T01:19:47.131Z,99.99
2022-10-06T01:19:57.596Z,99.99
2022-10-06T01:20:08.116Z,99.99
2022-10-06T01:20:18.637Z,99.99
2022-10-06T01:20:29.142Z,99.99
2022-10-06T01:20:39.653Z,99.99
2022-10-06T01:20:50.169Z,99.99
2022-10-06T01:21:00.686Z,99.99
2022-10-06T01:21:11.203Z,99.99
2022-10-06T01:21:21.733Z,99.99
2022-10-06T01:21:32.225Z,99.99
2022-10-06T01:21:42.780Z,99.99
2022-10-06T01:21:53.247Z,99.99
2022-10-06T01:22:03.767Z,99.99
2022-10-06T01:22:14.277Z,99.99
2022-10-06T01:22:24.802Z,99.99
2022-10-06T01:22:35.304Z,99.99
2022-10-06T01:22:45.819Z,99.99
2022-10-06T01:22:56.335Z,99.99
2022-10-06T01:23:06.883Z,99.99
2022-10-06T01:23:17.363Z,99.99
2022-10-06T01:23:27.873Z,99.99
2022-10-06T01:23:38.388Z,99.99
2022-10-06T01:23:48.911Z,99.99
2022-10-06T01:23:59.427Z,99.99
2022-10-06T01:24:09.934Z,99.99
2022-10-06T01:24:20.452Z,99.99
2022-10-06T01:24:30.965Z,99.99
2022-10-06T01:24:41.483Z,99.99
2022-10-06T01:24:51.998Z,99.99
2022-10-06T01:25:02.507Z,99.99
2022-10-06T01:25:13.024Z,99.99
2022-10-06T01:25:23.538Z,99.99
2022-10-06T01:25:34.062Z,99.99
2022-10-06T01:25:44.580Z,99.99
2022-10-06T01:25:55.106Z,99.99
2022-10-06T01:26:05.604Z,99.99
2022-10-06T01:26:16.115Z,99.99
2022-10-06T01:26:26.629Z,99.99
2022-10-06T01:26:37.151Z,99.99
2022-10-06T01:26:47.685Z,99.99
2022-10-06T01:26:58.176Z,99.99
2022-10-06T01:27:08.697Z,99.98
2022-10-06T01:27:19.228Z,99.99
2022-10-06T01:27:29.730Z,99.99
2022-10-06T01:27:40.241Z,99.99
2022-10-06T01:27:50.746Z,99.99
2022-10-06T01:28:01.330Z,99.99
2022-10-06T01:28:11.827Z,99.99
2022-10-06T01:28:22.362Z,99.99
2022-10-06T01:28:33.365Z,99.99
2022-10-06T01:28:43.356Z,99.99
2022-10-06T01:28:53.828Z,99.99
2022-10-06T01:29:04.363Z,99.99
2022-10-06T01:29:14.865Z,99.99
2022-10-06T01:29:25.375Z,99.99
2022-10-06T01:29:35.893Z,99.99
2022-10-06T01:29:46.408Z,99.99
2022-10-06T01:29:56.921Z,99.99
2022-10-06T01:30:07.455Z,99.99
2022-10-06T01:30:17.955Z,99.99
2022-10-06T01:30:28.465Z,99.99
2022-10-06T01:30:38.978Z,99.99
2022-10-06T01:30:49.514Z,99.99
2022-10-06T01:31:00.058Z,99.99
2022-10-06T01:31:10.594Z,99.99
2022-10-06T01:31:21.125Z,99.99
2022-10-06T01:31:31.621Z,99.99
2022-10-06T01:31:42.076Z,99.99
2022-10-06T01:31:52.581Z,99.99
2022-10-06T01:32:03.119Z,99.99
2022-10-06T01:32:13.605Z,99.99
2022-10-06T01:32:24.127Z,99.99
2022-10-06T01:32:34.646Z,99.99
2022-10-06T01:32:45.152Z,99.99
2022-10-06T01:32:55.668Z,99.99
2022-10-06T01:33:06.182Z,99.99
2022-10-06T01:33:16.699Z,99.99
2022-10-06T01:33:27.217Z,99.71
2022-10-06T01:33:37.726Z,99.81
2022-10-06T01:33:48.251Z,99.99
2022-10-06T01:33:58.754Z,99.99
2022-10-06T01:34:09.274Z,99.99
2022-10-06T01:34:19.807Z,99.81
2022-10-06T01:34:30.299Z,99.91
2022-10-06T01:34:40.816Z,99.99
2022-10-06T01:34:51.333Z,99.99
2022-10-06T01:35:01.851Z,99.99
2022-10-06T01:35:12.362Z,99.99
2022-10-06T01:35:22.876Z,99.96
2022-10-06T01:35:33.394Z,99.76
2022-10-06T01:35:43.909Z,99.76
2022-10-06T01:35:54.435Z,99.76
2022-10-06T01:36:04.943Z,99.96
2022-10-06T01:36:15.453Z,99.99
2022-10-06T01:36:25.970Z,99.99
2022-10-06T01:36:36.479Z,99.99
2022-10-06T01:36:47.001Z,99.99
2022-10-06T01:36:57.509Z,99.99
2022-10-06T01:37:08.020Z,99.99
2022-10-06T01:37:18.548Z,99.99
2022-10-06T01:37:29.086Z,99.99
2022-10-06T01:37:39.567Z,99.99
2022-10-06T01:37:50.079Z,99.99
2022-10-06T01:38:00.607Z,99.99
2022-10-06T01:38:11.109Z,99.99
2022-10-06T01:38:21.627Z,99.99
2022-10-06T01:38:32.467Z,99.99
2022-10-06T01:38:42.652Z,99.99
2022-10-06T01:38:53.164Z,99.99
2022-10-06T01:39:03.683Z,99.99
2022-10-06T01:39:14.197Z,99.99
2022-10-06T01:39:24.705Z,99.99
2022-10-06T01:39:35.223Z,99.99
2022-10-06T01:39:45.731Z,99.99
2022-10-06T01:39:56.250Z,99.99
2022-10-06T01:40:06.762Z,99.99
2022-10-06T01:40:17.282Z,99.99
2022-10-06T01:40:27.785Z,99.99
2022-10-06T01:40:38.303Z,99.99
2022-10-06T01:40:48.850Z,99.99
2022-10-06T01:40:59.347Z,99.99
2022-10-06T01:41:09.839Z,99.99
2022-10-06T01:41:20.355Z,99.99
2022-10-06T01:41:30.866Z,99.99
2022-10-06T01:41:41.384Z,99.99
2022-10-06T01:41:51.895Z,99.99
2022-10-06T01:42:02.406Z,99.99
2022-10-06T01:42:12.919Z,99.99
2022-10-06T01:42:23.432Z,99.99
2022-10-06T01:42:33.943Z,99.99
2022-10-06T01:42:44.469Z,99.99
2022-10-06T01:42:54.972Z,99.99
2022-10-06T01:43:05.486Z,99.99
2022-10-06T01:43:16.005Z,99.99
2022-10-06T01:43:26.518Z,99.99
2022-10-06T01:43:37.030Z,99.99
2022-10-06T01:43:47.548Z,99.99
2022-10-06T01:43:58.061Z,99.99
2022-10-06T01:44:08.570Z,99.99
2022-10-06T01:44:19.092Z,99.99
2022-10-06T01:44:29.607Z,99.99
2022-10-06T01:44:40.126Z,99.99
2022-10-06T01:44:50.634Z,99.99
2022-10-06T01:45:01.143Z,99.99
2022-10-06T01:45:11.670Z,99.99
2022-10-06T01:45:22.174Z,99.99
2022-10-06T01:45:32.692Z,99.99
2022-10-06T01:45:43.195Z,99.99
2022-10-06T01:45:53.734Z,99.99
2022-10-06T01:46:04.294Z,99.99
2022-10-06T01:46:14.882Z,99.99
2022-10-06T01:46:25.330Z,99.99
2022-10-06T01:46:35.824Z,99.99
2022-10-06T01:46:46.366Z,99.99
2022-10-06T01:46:56.785Z,99.99
2022-10-06T01:47:07.296Z,99.99
2022-10-06T01:47:17.815Z,99.99
2022-10-06T01:47:28.326Z,99.99
2022-10-06T01:47:38.845Z,99.99
2022-10-06T01:47:49.356Z,99.99
2022-10-06T01:47:59.866Z,99.99
2022-10-06T01:48:10.375Z,99.99
2022-10-06T01:48:20.895Z,99.99
2022-10-06T01:48:32.034Z,99.99
2022-10-06T01:48:41.924Z,99.99
2022-10-06T01:48:52.434Z,99.99
2022-10-06T01:49:02.952Z,99.99
2022-10-06T01:49:13.458Z,99.99
2022-10-06T01:49:23.971Z,99.99
2022-10-06T01:49:34.524Z,99.99
2022-10-06T01:49:44.999Z,99.99
2022-10-06T01:49:55.507Z,99.99
2022-10-06T01:50:06.022Z,99.99
2022-10-06T01:50:16.540Z,99.99
2022-10-06T01:50:27.056Z,99.99
2022-10-06T01:50:37.566Z,99.99
2022-10-06T01:50:48.076Z,99.99
2022-10-06T01:50:58.602Z,99.99
2022-10-06T01:51:09.107Z,99.99
2022-10-06T01:51:19.622Z,99.99
2022-10-06T01:51:30.146Z,99.99
2022-10-06T01:51:40.655Z,99.99
2022-10-06T01:51:51.161Z,99.99
2022-10-06T01:52:01.680Z,99.99
2022-10-06T01:52:12.189Z,99.99
2022-10-06T01:52:22.709Z,99.99
2022-10-06T01:52:33.216Z,99.99
2022-10-06T01:52:43.768Z,99.99
2022-10-06T01:52:54.252Z,99.99
2022-10-06T01:53:04.778Z,99.99
2022-10-06T01:53:15.265Z,99.99
2022-10-06T01:53:25.789Z,99.99
2022-10-06T01:53:36.294Z,99.99
2022-10-06T01:53:46.810Z,99.99
2022-10-06T01:53:57.318Z,99.99
2022-10-06T01:54:07.839Z,99.99
2022-10-06T01:54:18.342Z,99.99
2022-10-06T01:54:28.860Z,99.99
2022-10-06T01:54:39.381Z,99.99
2022-10-06T01:54:49.881Z,99.99
2022-10-06T01:55:00.402Z,99.99
2022-10-06T01:55:10.917Z,99.99
2022-10-06T01:55:21.418Z,99.99
2022-10-06T01:55:31.940Z,99.99
2022-10-06T01:55:42.447Z,99.99
2022-10-06T01:55:52.960Z,99.99
2022-10-06T01:56:03.508Z,99.99
2022-10-06T01:56:13.986Z,99.99
2022-10-06T01:56:24.499Z,99.99
2022-10-06T01:56:35.007Z,99.99
2022-10-06T01:56:45.517Z,99.99
2022-10-06T01:56:56.031Z,99.99
2022-10-06T01:57:06.545Z,99.99
2022-10-06T01:57:17.060Z,99.99
2022-10-06T01:57:27.567Z,99.99
2022-10-06T01:57:38.080Z,99.99
2022-10-06T01:57:48.598Z,99.99
2022-10-06T01:57:59.139Z,99.99
2022-10-06T01:58:09.616Z,99.99
2022-10-06T01:58:20.129Z,99.99
2022-10-06T01:58:31.065Z,99.99
2022-10-06T01:58:41.154Z,99.99
2022-10-06T01:58:51.670Z,99.99
2022-10-06T01:59:02.187Z,99.99
2022-10-06T01:59:12.685Z,99.99
2022-10-06T01:59:23.205Z,99.99
2022-10-06T01:59:33.717Z,99.99
2022-10-06T01:59:44.230Z,99.99
2022-10-06T01:59:55.165Z,99.99
2022-10-06T02:00:05.249Z,99.99
2022-10-06T02:00:15.758Z,99.99
2022-10-06T02:00:26.273Z,99.99
2022-10-06T02:00:36.795Z,99.99
2022-10-06T02:00:47.305Z,99.99
2022-10-06T02:00:57.814Z,99.99
2022-10-06T02:01:08.318Z,99.99
2022-10-06T02:01:18.937Z,99.95
2022-10-06T02:01:29.403Z,99.85
2022-10-06T02:01:39.954Z,99.85
2022-10-06T02:01:50.484Z,99.85
2022-10-06T02:02:00.969Z,99.85
2022-10-06T02:02:11.409Z,99.85
2022-10-06T02:02:21.911Z,99.85
2022-10-06T02:02:32.435Z,99.95
2022-10-06T02:02:42.934Z,99.95
2022-10-06T02:02:53.452Z,99.95
2022-10-06T02:03:04.000Z,99.95
2022-10-06T02:03:14.492Z,99.65
2022-10-06T02:03:24.986Z,99.54
2022-10-06T02:03:35.516Z,99.54
2022-10-06T02:03:46.022Z,99.54
2022-10-06T02:03:56.561Z,99.54
2022-10-06T02:04:07.123Z,99.54
2022-10-06T02:04:17.594Z,99.54
2022-10-06T02:04:28.072Z,99.54
2022-10-06T02:04:38.587Z,99.54
2022-10-06T02:04:49.182Z,99.54
2022-10-06T02:04:59.619Z,99.65
2022-10-06T02:05:10.122Z,99.75
2022-10-06T02:05:20.637Z,99.75
2022-10-06T02:05:31.160Z,99.85
2022-10-06T02:05:41.670Z,99.85
2022-10-06T02:05:52.262Z,99.85
2022-10-06T02:06:02.803Z,99.85
2022-10-06T02:06:13.304Z,99.85
2022-10-06T02:06:23.792Z,99.85
2022-10-06T02:06:34.366Z,99.85
2022-10-06T02:06:44.873Z,99.85
2022-10-06T02:06:55.263Z,99.85
2022-10-06T02:07:05.775Z,99.75
2022-10-06T02:07:16.298Z,99.75
2022-10-06T02:07:26.816Z,99.85
2022-10-06T02:07:37.313Z,99.75
2022-10-06T02:07:47.830Z,99.85
2022-10-06T02:07:58.351Z,99.85
2022-10-06T02:08:08.869Z,99.85
2022-10-06T02:08:19.372Z,99.85
2022-10-06T02:08:30.319Z,99.85
2022-10-06T02:08:40.397Z,99.95
2022-10-06T02:08:50.925Z,99.99
2022-10-06T02:09:01.446Z,99.99
2022-10-06T02:09:11.933Z,99.99
2022-10-06T02:09:22.444Z,99.99
2022-10-06T02:09:32.958Z,99.99
2022-10-06T02:09:43.468Z,99.99
2022-10-06T02:09:53.987Z,99.99
2022-10-06T02:10:04.493Z,99.99
2022-10-06T02:10:15.017Z,99.99
2022-10-06T02:10:25.516Z,99.99
2022-10-06T02:10:36.037Z,99.99
2022-10-06T02:10:46.551Z,99.99
2022-10-06T02:10:57.060Z,99.95
2022-10-06T02:11:07.588Z,99.85
2022-10-06T02:11:18.098Z,99.75
2022-10-06T02:11:28.598Z,99.75
2022-10-06T02:11:39.113Z,99.85
2022-10-06T02:11:49.619Z,99.85
2022-10-06T02:12:00.137Z,99.95
2022-10-06T02:12:10.683Z,99.85
2022-10-06T02:12:21.171Z,99.85
2022-10-06T02:12:31.674Z,99.85
2022-10-06T02:12:42.189Z,99.85
2022-10-06T02:12:52.698Z,99.85
2022-10-06T02:13:03.216Z,99.85
2022-10-06T02:13:13.721Z,99.85
2022-10-06T02:13:24.237Z,99.95
2022-10-06T02:13:34.752Z,99.95
2022-10-06T02:13:45.276Z,99.95
2022-10-06T02:13:55.805Z,99.95
2022-10-06T02:14:06.296Z,99.95
2022-10-06T02:14:16.799Z,99.85
2022-10-06T02:14:27.315Z,99.85
2022-10-06T02:14:37.826Z,99.85
2022-10-06T02:14:48.342Z,99.85
2022-10-06T02:14:58.856Z,99.85
2022-10-06T02:15:09.365Z,99.85
2022-10-06T02:15:19.884Z,99.95